Time;durP1;ratioP1;P1;durP2;ratioP2;P2;SDS_P1;SDS_P2;PMS_P1;PMS_P2;Temp;Humidity;BMP_temperature;BMP_pressure;BME280_temperature;BME280_humidity;BME280_pressure;Samples;Min_cycle;Max_cycle;Signal;HPM_P1;HPM_P2
2021/07/31 00:00:10;;;;;;;3.58;1.40;;;;;;;16.42;63.18;100427.66;5001932;28;20413;-73
2021/07/31 00:02:39;;;;;;;4.40;0.80;;;;;;;16.47;62.69;100425.25;4997623;28;20061;-73
2021/07/31 00:05:06;;;;;;;4.57;1.83;;;;;;;16.43;62.69;100427.47;4988343;28;20050;-72
2021/07/31 00:07:31;;;;;;;5.90;0.98;;;;;;;16.46;62.89;100429.69;5007107;28;20113;-73
2021/07/31 00:09:56;;;;;;;3.85;1.77;;;;;;;16.48;62.77;100427.66;5003764;28;20069;-72
2021/07/31 00:12:22;;;;;;;5.10;1.00;;;;;;;16.46;62.57;100431.47;4993022;28;20258;-73
2021/07/31 00:14:47;;;;;;;1.92;0.85;;;;;;;16.46;63.11;100429.69;5000766;28;20142;-72
2021/07/31 00:17:13;;;;;;;4.70;1.02;;;;;;;16.46;63.18;100429.69;5009603;28;20052;-75
2021/07/31 00:19:38;;;;;;;7.10;1.10;;;;;;;16.44;63.39;100425.66;5008919;28;20038;-74
2021/07/31 00:22:04;;;;;;;7.32;1.25;;;;;;;16.59;62.83;100430.66;5002251;28;20030;-73
2021/07/31 00:24:29;;;;;;;6.63;1.08;;;;;;;16.57;62.69;100427.44;5007184;28;20061;-73
2021/07/31 00:26:55;;;;;;;6.57;2.05;;;;;;;16.55;62.97;100432.88;4998860;28;20462;-73
2021/07/31 00:29:21;;;;;;;6.35;1.73;;;;;;;16.45;63.21;100422.81;5006278;28;20022;-73
2021/07/31 00:31:47;;;;;;;5.90;1.15;;;;;;;16.44;63.51;100431.66;5004758;28;20242;-73
2021/07/31 00:34:13;;;;;;;8.88;1.75;;;;;;;16.55;63.70;100422.41;4991502;28;20410;-73
2021/07/31 00:36:38;;;;;;;4.60;1.25;;;;;;;16.53;63.33;100419.97;4997156;28;20563;-73
2021/07/31 00:39:04;;;;;;;4.80;1.58;;;;;;;16.58;63.59;100422.00;4989700;28;20034;-73
2021/07/31 00:41:29;;;;;;;3.03;1.70;;;;;;;16.57;64.19;100419.59;4994820;28;20046;-72
2021/07/31 00:43:55;;;;;;;8.13;1.80;;;;;;;16.50;64.15;100430.88;4982685;28;20109;-73
2021/07/31 00:46:21;;;;;;;6.43;1.85;;;;;;;16.51;63.69;100423.81;5009449;28;20476;-71
2021/07/31 00:48:48;;;;;;;7.28;1.33;;;;;;;16.55;63.41;100428.44;4976569;28;20033;-72
2021/07/31 00:51:16;;;;;;;6.90;1.45;;;;;;;16.52;64.00;100433.31;4999412;28;20043;-74
2021/07/31 00:53:45;;;;;;;7.07;1.50;;;;;;;16.50;63.87;100424.81;4997504;28;20085;-74
2021/07/31 00:56:12;;;;;;;6.70;1.23;;;;;;;16.46;64.20;100428.84;4968850;28;20172;-73
2021/07/31 00:58:38;;;;;;;5.20;0.98;;;;;;;16.48;64.26;100432.91;4993891;28;20061;-74
2021/07/31 01:01:09;;;;;;;4.63;1.00;;;;;;;16.50;63.96;100435.28;4976668;28;20108;-71
2021/07/31 01:03:35;;;;;;;4.20;1.50;;;;;;;16.47;64.54;100433.91;4991135;28;20034;-71
2021/07/31 01:06:00;;;;;;;6.68;1.30;;;;;;;16.52;63.80;100431.47;4998785;28;20471;-72
2021/07/31 01:08:26;;;;;;;10.88;1.60;;;;;;;16.54;63.84;100424.22;4985791;28;20034;-70
2021/07/31 01:10:52;;;;;;;7.28;1.30;;;;;;;16.48;64.50;100434.69;5002281;28;20026;-73
2021/07/31 01:13:20;;;;;;;9.35;1.40;;;;;;;16.43;64.38;100430.09;4983646;28;20053;-72
2021/07/31 01:16:01;;;;;;;7.60;1.60;;;;;;;16.47;64.30;100427.88;5001753;28;20034;-72
2021/07/31 01:18:28;;;;;;;4.15;1.00;;;;;;;16.44;64.22;100428.25;4984866;28;20121;-72
2021/07/31 01:20:53;;;;;;;5.70;1.35;;;;;;;16.49;64.53;100436.31;5012105;28;20026;-72
2021/07/31 01:23:20;;;;;;;10.57;1.63;;;;;;;16.49;64.21;100426.63;5002444;28;20033;-74
2021/07/31 01:25:46;;;;;;;7.68;1.55;;;;;;;16.47;64.44;100420.00;4988108;28;20398;-72
2021/07/31 01:28:11;;;;;;;7.95;1.48;;;;;;;16.43;65.19;100429.28;4984906;28;20195;-72
2021/07/31 01:30:37;;;;;;;9.05;1.42;;;;;;;16.43;64.60;100429.28;5003895;28;20439;-76
2021/07/31 01:33:04;;;;;;;5.75;2.20;;;;;;;16.41;65.04;100421.63;4987460;28;20517;-73
2021/07/31 01:35:30;;;;;;;6.90;1.50;;;;;;;16.46;64.83;100431.47;4986485;28;20100;-72
2021/07/31 01:37:57;;;;;;;3.45;1.58;;;;;;;16.43;64.72;100427.47;4989566;28;20105;-73
2021/07/31 01:40:23;;;;;;;5.85;1.65;;;;;;;16.38;65.37;100424.66;4988388;28;20545;-73
2021/07/31 01:42:49;;;;;;;13.02;2.00;;;;;;;16.32;65.60;100423.63;4986793;28;20034;-73
2021/07/31 01:45:16;;;;;;;5.72;1.48;;;;;;;16.47;65.57;100420.81;4994866;28;20103;-74
2021/07/31 01:47:43;;;;;;;7.47;1.77;;;;;;;16.49;65.17;100420.63;4971098;28;20045;-71
2021/07/31 01:50:10;;;;;;;6.47;1.40;;;;;;;16.47;65.31;100420.81;4998610;28;20464;-72
2021/07/31 01:52:48;;;;;;;6.55;1.90;;;;;;;16.40;65.35;100427.84;5010623;28;20045;-73
2021/07/31 01:55:15;;;;;;;5.70;1.52;;;;;;;16.38;65.53;100423.84;4972549;28;20037;-71
2021/07/31 01:57:45;;;;;;;18.60;2.13;;;;;;;16.41;65.55;100420.84;4978841;28;20435;-73
2021/07/31 02:00:16;;;;;;;7.55;1.77;;;;;;;16.38;65.26;100416.78;4999093;28;20096;-74
2021/07/31 02:02:53;;;;;;;7.25;1.67;;;;;;;16.27;65.69;100417.41;4983179;28;20420;-72
2021/07/31 02:05:18;;;;;;;3.78;1.27;;;;;;;16.25;65.98;100422.03;4981246;28;20045;-72
2021/07/31 02:07:51;;;;;;;6.25;1.40;;;;;;;16.15;66.17;100420.63;4992678;28;20464;-72
2021/07/31 02:10:17;;;;;;;4.15;1.50;;;;;;;16.26;65.72;100423.66;4990444;28;20037;-72
2021/07/31 02:12:43;;;;;;;6.30;1.90;;;;;;;16.31;65.41;100418.59;4989983;28;20030;-72
2021/07/31 02:15:13;;;;;;;8.77;1.70;;;;;;;16.21;65.99;100419.03;4990752;28;20037;-74
2021/07/31 02:17:39;;;;;;;11.20;2.28;;;;;;;16.10;66.72;100422.25;4990646;28;20034;-72
2021/07/31 02:20:05;;;;;;;5.43;1.30;;;;;;;16.15;66.12;100410.16;4979976;28;20487;-72
2021/07/31 02:22:52;;;;;;;4.68;1.50;;;;;;;16.18;66.01;100422.06;5009098;28;20033;-72
2021/07/31 02:25:36;;;;;;;8.55;1.88;;;;;;;16.23;65.83;100421.44;5014703;28;20593;-72
2021/07/31 02:28:21;;;;;;;6.20;1.67;;;;;;;16.21;66.11;100402.53;5006800;28;20040;-73
2021/07/31 02:30:46;;;;;;;3.60;1.70;;;;;;;16.23;66.22;100411.78;4989632;28;20038;-73
2021/07/31 02:33:13;;;;;;;6.13;1.52;;;;;;;16.21;65.60;100416.41;4979464;28;20472;-71
2021/07/31 02:35:39;;;;;;;2.53;1.20;;;;;;;16.10;66.04;100415.19;5001270;28;20026;-72
2021/07/31 02:38:41;;;;;;;3.90;1.85;;;;;;;16.06;66.47;100414.00;4925416;29;20059;-73
2021/07/31 02:41:07;;;;;;;5.60;1.55;;;;;;;16.19;66.08;100415.81;4976035;28;20443;-72
2021/07/31 02:43:36;;;;;;;5.50;1.73;;;;;;;16.13;66.67;100420.03;4985075;28;20427;-71
2021/07/31 02:46:07;;;;;;;10.23;2.30;;;;;;;16.20;66.35;100414.00;4985502;28;20458;-73
2021/07/31 02:48:34;;;;;;;6.30;1.92;;;;;;;16.18;65.92;100405.53;5013202;28;20018;-72
2021/07/31 02:51:09;;;;;;;8.20;1.67;;;;;;;16.14;66.13;100407.75;4979422;28;20030;-73
2021/07/31 02:54:10;;;;;;;10.13;2.60;;;;;;;16.12;66.15;100410.59;4982698;28;20141;-73
2021/07/31 02:56:35;;;;;;;9.23;1.73;;;;;;;16.12;66.41;100413.22;4993219;28;20037;-72
2021/07/31 02:59:04;;;;;;;6.00;2.35;;;;;;;16.20;66.42;100404.34;4990982;28;20033;-71
2021/07/31 03:01:34;;;;;;;8.57;2.65;;;;;;;16.19;66.13;100401.94;5004008;28;20037;-74
2021/07/31 03:04:00;;;;;;;6.55;1.50;;;;;;;16.08;65.91;100385.81;5014522;28;20044;-72
2021/07/31 03:06:26;;;;;;;6.53;1.40;;;;;;;16.08;66.41;100388.44;5002221;28;20491;-74
2021/07/31 03:08:52;;;;;;;6.55;1.75;;;;;;;16.14;66.17;100390.28;4990732;28;20244;-72
2021/07/31 03:11:18;;;;;;;6.88;1.60;;;;;;;16.17;66.23;100390.88;5007232;28;20599;-72
2021/07/31 03:13:43;;;;;;;5.50;1.80;;;;;;;16.14;65.83;100392.06;5007136;28;20037;-74
2021/07/31 03:16:11;;;;;;;5.75;1.60;;;;;;;16.05;66.06;100390.66;4973596;28;20064;-74
2021/07/31 03:18:42;;;;;;;9.10;2.67;;;;;;;16.03;66.30;100392.66;4983650;28;20384;-72
2021/07/31 03:21:12;;;;;;;8.57;1.63;;;;;;;16.03;66.50;100388.25;4977352;28;20591;-74
2021/07/31 03:23:52;;;;;;;4.63;1.70;;;;;;;16.04;66.48;100383.84;4988554;28;20030;-73
2021/07/31 03:26:18;;;;;;;7.82;2.40;;;;;;;16.00;66.58;100390.47;4994804;28;20415;-72
2021/07/31 03:28:45;;;;;;;7.90;1.75;;;;;;;15.93;66.62;100369.53;4994427;28;20014;-71
2021/07/31 03:31:18;;;;;;;5.60;1.38;;;;;;;15.93;67.30;100378.19;4991720;28;20045;-71
2021/07/31 03:33:45;;;;;;;10.70;2.30;;;;;;;15.93;67.08;100369.53;4987520;28;20026;-73
2021/07/31 03:36:10;;;;;;;6.68;1.73;;;;;;;15.91;67.33;100382.00;5004362;28;20486;-73
2021/07/31 03:38:37;;;;;;;7.07;1.30;;;;;;;15.92;67.33;100381.03;5013327;28;20538;-73
2021/07/31 03:41:03;;;;;;;9.80;2.03;;;;;;;15.87;67.42;100386.03;4978555;28;20048;-72
2021/07/31 03:43:37;;;;;;;4.70;2.35;;;;;;;15.85;67.28;100386.25;5006899;28;20029;-71
2021/07/31 03:46:09;;;;;;;2.92;1.13;;;;;;;15.82;67.83;100380.59;5006984;28;20048;-73
2021/07/31 03:48:36;;;;;;;7.00;2.03;;;;;;;15.80;67.75;100388.63;4993759;28;20486;-75
2021/07/31 03:51:02;;;;;;;8.98;1.67;;;;;;;15.76;68.63;100380.41;4989103;28;20034;-74
2021/07/31 03:53:35;;;;;;;9.07;1.83;;;;;;;15.76;67.96;100382.22;4992070;28;20022;-71
2021/07/31 03:56:02;;;;;;;4.90;1.50;;;;;;;15.72;68.50;100386.19;5009268;28;20377;-72
2021/07/31 03:58:29;;;;;;;7.07;1.73;;;;;;;15.65;68.69;100388.81;4988257;28;20038;-73
2021/07/31 04:00:55;;;;;;;6.38;1.70;;;;;;;15.67;68.72;100393.81;4987211;28;20055;-74
2021/07/31 04:03:21;;;;;;;5.60;1.77;;;;;;;15.68;69.04;100400.69;5001330;28;20120;-72
2021/07/31 04:05:50;;;;;;;6.03;2.22;;;;;;;15.54;69.28;100402.47;4987159;28;20117;-72
2021/07/31 04:08:34;;;;;;;8.23;2.17;;;;;;;15.54;69.19;100412.94;5008468;28;20049;-71
2021/07/31 04:11:18;;;;;;;5.88;2.00;;;;;;;15.52;69.35;100417.50;4990564;28;20096;-71
2021/07/31 04:14:03;;;;;;;5.30;1.80;;;;;;;15.60;69.22;100417.34;5000863;28;20057;-73
2021/07/31 04:16:38;;;;;;;7.57;2.38;;;;;;;15.61;69.63;100416.34;4979868;28;20093;-72
2021/07/31 04:19:03;;;;;;;11.57;3.53;;;;;;;15.63;69.27;100421.38;4991923;28;20034;-72
2021/07/31 04:21:29;;;;;;;9.88;1.75;;;;;;;15.63;69.45;100418.75;5006152;28;20431;-73
2021/07/31 04:23:56;;;;;;;9.40;2.00;;;;;;;15.77;69.26;100423.03;4992532;28;20168;-72
2021/07/31 04:26:21;;;;;;;7.38;2.00;;;;;;;15.71;69.58;100422.00;4993338;28;20026;-74
2021/07/31 04:28:47;;;;;;;7.72;1.90;;;;;;;15.64;69.59;100423.00;4999589;28;20476;-73
2021/07/31 04:31:14;;;;;;;8.32;2.03;;;;;;;15.63;69.29;100419.56;5009234;28;20021;-74
2021/07/31 04:33:41;;;;;;;9.98;2.38;;;;;;;15.66;69.21;100420.97;5005098;28;20041;-72
2021/07/31 04:36:07;;;;;;;6.82;3.15;;;;;;;15.68;69.57;100419.78;5008018;28;20707;-72
2021/07/31 04:38:35;;;;;;;8.82;2.60;;;;;;;15.79;69.36;100433.31;5006596;28;20061;-72
2021/07/31 04:41:01;;;;;;;7.70;1.98;;;;;;;15.75;69.57;100427.66;4992472;28;20105;-73
2021/07/31 04:43:27;;;;;;;7.20;1.95;;;;;;;15.72;69.60;100423.59;4991844;28;20565;-72
2021/07/31 04:45:53;;;;;;;7.10;2.17;;;;;;;15.73;69.35;100437.50;4990259;28;20104;-74
2021/07/31 04:48:18;;;;;;;9.00;2.00;;;;;;;15.71;69.88;100442.09;5005885;28;20049;-71
2021/07/31 04:50:44;;;;;;;7.22;1.60;;;;;;;15.80;69.43;100437.50;5001905;28;20072;-73
2021/07/31 04:53:09;;;;;;;7.35;1.80;;;;;;;15.70;70.04;100449.13;4999334;28;20327;-72
2021/07/31 04:55:35;;;;;;;10.25;2.25;;;;;;;15.71;69.57;100440.28;5007973;28;20403;-73
2021/07/31 04:58:00;;;;;;;9.98;2.40;;;;;;;15.74;69.61;100444.34;4986176;28;20038;-71
2021/07/31 05:00:26;;;;;;;6.30;1.95;;;;;;;15.79;69.61;100441.16;4996508;28;20034;-73
2021/07/31 05:02:51;;;;;;;8.82;2.03;;;;;;;15.76;69.17;100453.59;5004049;28;20026;-72
2021/07/31 05:05:17;;;;;;;8.82;1.90;;;;;;;15.84;69.54;100447.38;5001337;28;20394;-72
2021/07/31 05:07:42;;;;;;;6.00;2.00;;;;;;;15.84;69.53;100451.78;5005570;28;20446;-73
2021/07/31 05:10:09;;;;;;;4.72;1.92;;;;;;;15.81;69.64;100452.22;4990251;28;20240;-72
2021/07/31 05:12:34;;;;;;;10.70;2.30;;;;;;;15.75;69.53;100451.97;5011071;28;20037;-73
2021/07/31 05:15:00;;;;;;;5.82;2.15;;;;;;;15.74;69.58;100447.75;5010283;28;20041;-70
2021/07/31 05:17:25;;;;;;;7.82;2.00;;;;;;;15.73;69.64;100450.56;5009343;28;20037;-72
2021/07/31 05:19:51;;;;;;;6.68;1.58;;;;;;;15.71;70.44;100455.19;4984723;28;20034;-72
2021/07/31 05:22:17;;;;;;;11.80;3.35;;;;;;;15.67;70.56;100454.75;5007380;28;20029;-73
2021/07/31 05:24:42;;;;;;;5.97;1.85;;;;;;;15.70;70.69;100454.34;4994112;28;20270;-73
2021/07/31 05:27:08;;;;;;;5.03;1.85;;;;;;;15.88;69.97;100453.00;4996277;28;20041;-72
2021/07/31 05:29:34;;;;;;;7.53;2.17;;;;;;;15.90;69.74;100462.28;4984506;28;20026;-73
2021/07/31 05:32:01;;;;;;;5.88;2.28;;;;;;;15.93;69.59;100458.44;5003173;28;20064;-72
2021/07/31 05:34:26;;;;;;;9.07;2.10;;;;;;;15.93;70.02;100463.66;5014146;28;20391;-72
2021/07/31 05:36:52;;;;;;;6.72;2.80;;;;;;;15.83;69.45;100461.44;4990843;28;20108;-72
2021/07/31 05:39:17;;;;;;;11.48;2.03;;;;;;;15.95;69.50;100462.47;4989100;28;20042;-72
2021/07/31 05:41:43;;;;;;;7.65;2.53;;;;;;;16.01;69.26;100471.34;4985819;28;20030;-76
2021/07/31 05:44:09;;;;;;;5.80;2.03;;;;;;;15.98;69.41;100469.13;5000681;28;20031;-75
2021/07/31 05:46:34;;;;;;;8.43;1.98;;;;;;;15.92;69.93;100475.16;4992732;28;20029;-71
2021/07/31 05:49:00;;;;;;;8.50;2.15;;;;;;;16.11;69.15;100476.97;4992360;28;20037;-72
2021/07/31 05:51:25;;;;;;;7.25;2.13;;;;;;;16.20;68.91;100476.75;5010056;28;20053;-73
2021/07/31 05:53:51;;;;;;;6.38;2.78;;;;;;;16.15;69.76;100480.00;4984769;28;20112;-71
2021/07/31 05:56:16;;;;;;;8.48;1.90;;;;;;;16.17;69.16;100479.81;5005297;28;20499;-72
2021/07/31 05:58:43;;;;;;;9.00;2.80;;;;;;;16.07;69.19;100482.81;4982785;28;20480;-72
2021/07/31 06:01:08;;;;;;;9.35;2.25;;;;;;;16.09;69.65;100478.19;5000507;28;20683;-74
2021/07/31 06:03:35;;;;;;;6.85;1.80;;;;;;;16.13;69.48;100482.81;4994811;28;20096;-74
2021/07/31 06:06:00;;;;;;;7.25;2.35;;;;;;;16.18;69.60;100478.78;5005171;28;20037;-73
2021/07/31 06:08:26;;;;;;;6.35;2.10;;;;;;;16.19;69.72;100486.44;5000607;28;20038;-72
2021/07/31 06:11:02;;;;;;;8.23;2.58;;;;;;;16.22;68.76;100478.19;5003654;28;20023;-71
2021/07/31 06:13:28;;;;;;;4.28;1.80;;;;;;;16.15;69.42;100482.63;4981898;28;20085;-72
2021/07/31 06:15:54;;;;;;;5.80;1.98;;;;;;;16.25;69.07;100490.06;4998955;28;20038;-73
2021/07/31 06:18:19;;;;;;;5.95;2.22;;;;;;;16.26;69.31;100489.06;5006408;28;20029;-73
2021/07/31 06:20:45;;;;;;;7.32;2.35;;;;;;;16.27;69.46;100482.81;5000542;28;20030;-72
2021/07/31 06:23:10;;;;;;;9.45;2.97;;;;;;;16.23;69.05;100492.88;5000239;28;20026;-74
2021/07/31 06:25:36;;;;;;;6.57;2.20;;;;;;;16.31;69.17;100494.47;4991784;28;20502;-73
2021/07/31 06:28:01;;;;;;;6.90;2.35;;;;;;;16.66;68.18;100491.66;5005265;28;20467;-73
2021/07/31 06:30:27;;;;;;;6.60;1.58;;;;;;;16.87;67.44;100496.66;5013026;28;20113;-72
2021/07/31 06:32:52;;;;;;;5.93;1.55;;;;;;;16.89;67.20;100494.66;4981873;28;20324;-74
2021/07/31 06:35:18;;;;;;;6.25;2.38;;;;;;;16.68;68.44;100502.72;4988188;28;20325;-74
2021/07/31 06:37:43;;;;;;;5.63;1.92;;;;;;;16.59;67.64;100503.94;5001291;28;20045;-72
2021/07/31 06:40:09;;;;;;;5.90;1.92;;;;;;;16.68;68.12;100505.34;4991357;28;20203;-74
2021/07/31 06:42:35;;;;;;;4.75;1.95;;;;;;;16.55;67.81;100504.34;4983832;28;20488;-74
2021/07/31 06:45:02;;;;;;;8.40;1.80;;;;;;;16.46;68.57;100510.81;5001758;28;20487;-74
2021/07/31 06:47:28;;;;;;;4.93;1.95;;;;;;;16.43;68.48;100510.41;4993495;28;20061;-73
2021/07/31 06:49:54;;;;;;;3.63;1.70;;;;;;;16.46;67.77;100517.81;5001689;28;20026;-72
2021/07/31 06:52:19;;;;;;;4.78;2.13;;;;;;;16.49;67.53;100510.38;4984267;28;20034;-75
2021/07/31 06:54:44;;;;;;;6.72;2.38;;;;;;;16.49;68.10;100525.28;4995680;28;20037;-74
2021/07/31 06:57:10;;;;;;;7.93;2.55;;;;;;;16.63;68.65;100521.66;5005981;28;20438;-74
2021/07/31 06:59:36;;;;;;;7.75;2.90;;;;;;;16.58;68.37;100523.28;5012385;28;20601;-73
2021/07/31 07:02:02;;;;;;;6.38;2.15;;;;;;;16.61;67.87;100517.63;4988694;28;20060;-75
2021/07/31 07:04:28;;;;;;;9.40;2.17;;;;;;;16.71;68.25;100518.84;4989307;28;20489;-73
2021/07/31 07:06:53;;;;;;;3.67;1.88;;;;;;;16.77;68.82;100526.88;4986785;28;20034;-71
2021/07/31 07:09:19;;;;;;;9.95;1.95;;;;;;;16.79;67.90;100520.44;5005103;28;20467;-72
2021/07/31 07:11:44;;;;;;;7.35;2.08;;;;;;;16.85;67.70;100531.94;5008060;28;20025;-73
2021/07/31 07:14:10;;;;;;;5.97;1.75;;;;;;;16.90;67.67;100530.31;4983060;28;20034;-74
2021/07/31 07:16:36;;;;;;;5.93;2.00;;;;;;;16.96;68.21;100528.69;5004402;28;20045;-73
2021/07/31 07:19:02;;;;;;;8.95;2.28;;;;;;;16.99;67.54;100530.09;4999145;28;20038;-74
2021/07/31 07:21:27;;;;;;;6.20;1.92;;;;;;;17.35;67.21;100524.38;5001445;28;20030;-73
2021/07/31 07:23:53;;;;;;;7.82;2.20;;;;;;;17.48;65.76;100534.00;4997791;28;20030;-73
2021/07/31 07:26:19;;;;;;;4.13;2.08;;;;;;;17.76;66.17;100530.22;4993499;28;20030;-74
2021/07/31 07:28:44;;;;;;;7.65;1.75;;;;;;;17.90;64.27;100534.44;5009402;28;20022;-74
2021/07/31 07:31:12;;;;;;;8.50;2.45;;;;;;;18.36;62.79;100527.25;4986841;28;20483;-71
2021/07/31 07:33:38;;;;;;;5.72;2.28;;;;;;;18.87;61.39;100534.09;5011846;28;20033;-73
2021/07/31 07:36:10;;;;;;;5.47;1.90;;;;;;;19.26;60.35;100522.38;5008214;28;20034;-72
2021/07/31 07:38:36;;;;;;;10.80;2.25;;;;;;;19.98;58.54;100526.91;4988848;28;20419;-74
2021/07/31 07:41:03;;;;;;;5.22;2.10;;;;;;;20.54;55.95;100524.03;5006058;28;20030;-73
2021/07/31 07:43:29;;;;;;;5.18;1.63;;;;;;;20.78;55.95;100527.53;4990292;28;20030;-73
2021/07/31 07:45:54;;;;;;;6.38;1.90;;;;;;;21.46;54.87;100530.50;4991413;28;20088;-73
2021/07/31 07:48:20;;;;;;;4.93;1.60;;;;;;;20.88;55.46;100526.94;5006805;28;20025;-74
2021/07/31 07:50:45;;;;;;;6.80;2.10;;;;;;;20.22;57.20;100530.41;5005294;28;20069;-74
2021/07/31 07:53:11;;;;;;;6.00;1.85;;;;;;;19.85;59.27;100535.00;4983314;28;20045;-73
2021/07/31 07:55:36;;;;;;;6.32;2.03;;;;;;;19.68;59.28;100526.91;4998966;28;20069;-73
2021/07/31 07:58:07;;;;;;;5.28;1.88;;;;;;;19.69;58.93;100535.63;5003604;28;20405;-75
2021/07/31 08:00:32;;;;;;;8.23;2.05;;;;;;;20.29;57.02;100532.16;5005716;28;20423;-74
2021/07/31 08:02:58;;;;;;;9.40;1.85;;;;;;;21.20;56.26;100522.06;5003792;28;20042;-74
2021/07/31 08:05:23;;;;;;;4.82;1.80;;;;;;;21.71;54.06;100524.91;5002884;28;20022;-73
2021/07/31 08:07:49;;;;;;;7.13;1.75;;;;;;;21.94;52.59;100531.91;4991604;28;20423;-74
2021/07/31 08:10:14;;;;;;;14.05;2.67;;;;;;;22.14;52.35;100531.44;5002512;28;20041;-75
2021/07/31 08:12:40;;;;;;;8.45;1.95;;;;;;;22.31;52.00;100521.72;4984201;28;20021;-75
2021/07/31 08:15:06;;;;;;;5.03;1.95;;;;;;;22.73;51.09;100531.84;5002819;28;20041;-73
2021/07/31 08:17:31;;;;;;;4.82;1.80;;;;;;;22.91;50.85;100538.69;4988733;28;20037;-75
2021/07/31 08:19:57;;;;;;;10.10;2.10;;;;;;;22.20;51.54;100541.03;5013943;28;20502;-75
2021/07/31 08:22:22;;;;;;;8.52;2.28;;;;;;;21.73;51.92;100536.81;4981570;28;20022;-74
2021/07/31 08:24:48;;;;;;;7.63;2.58;;;;;;;21.71;54.52;100530.19;5010265;28;20392;-74
2021/07/31 08:27:14;;;;;;;5.95;1.88;;;;;;;22.23;52.97;100530.00;5008177;28;20025;-73
2021/07/31 08:29:40;;;;;;;3.60;1.80;;;;;;;22.35;51.80;100529.97;4992450;28;20463;-74
2021/07/31 08:32:06;;;;;;;7.80;2.10;;;;;;;21.97;50.57;100521.66;5013536;28;20049;-74
2021/07/31 08:34:32;;;;;;;6.85;2.20;;;;;;;22.67;51.22;100524.88;5017176;28;20357;-73
2021/07/31 08:37:04;;;;;;;4.60;1.70;;;;;;;22.62;51.25;100522.19;5007398;28;20049;-74
2021/07/31 08:39:30;;;;;;;4.75;1.88;;;;;;;22.54;51.64;100520.72;5004525;28;20491;-74
2021/07/31 08:41:56;;;;;;;8.13;2.38;;;;;;;21.73;52.20;100528.09;5005833;28;20459;-73
2021/07/31 08:44:22;;;;;;;6.85;1.80;;;;;;;21.67;53.46;100536.97;4995110;28;20053;-75
2021/07/31 08:46:50;;;;;;;18.30;2.60;;;;;;;22.64;50.43;100538.59;4971818;28;20056;-74
2021/07/31 08:49:19;;;;;;;7.07;1.48;;;;;;;22.97;50.25;100528.97;4987600;28;20026;-75
2021/07/31 08:51:46;;;;;;;6.53;1.67;;;;;;;23.22;49.07;100525.88;4987027;28;20077;-74
2021/07/31 08:54:12;;;;;;;3.97;1.42;;;;;;;23.73;48.40;100548.66;4987006;28;20121;-76
2021/07/31 08:56:42;;;;;;;10.95;2.63;;;;;;;23.62;47.83;100545.09;4999533;28;20121;-77
2021/07/31 08:59:08;;;;;;;5.95;1.70;;;;;;;22.38;49.82;100536.59;4975724;28;20529;-76
2021/07/31 09:01:34;;;;;;;5.65;1.92;;;;;;;22.53;50.02;100547.41;5002495;28;20073;-77
2021/07/31 09:04:15;;;;;;;2.50;1.35;;;;;;;22.25;50.51;100550.91;4993515;28;20030;-76
2021/07/31 09:06:42;;;;;;;3.78;1.35;;;;;;;22.67;48.15;100542.59;5000075;28;20029;-76
2021/07/31 09:09:08;;;;;;;6.35;1.83;;;;;;;23.33;49.01;100546.09;4997205;28;20041;-74
2021/07/31 09:11:34;;;;;;;5.20;1.60;;;;;;;23.42;48.64;100554.41;4990050;28;20076;-74
2021/07/31 09:14:12;;;;;;;3.00;1.50;;;;;;;23.09;49.04;100542.94;4987414;28;20037;-75
2021/07/31 09:16:39;;;;;;;8.07;1.85;;;;;;;22.29;50.17;100544.91;5003727;28;20123;-75
2021/07/31 09:19:13;;;;;;;5.15;1.38;;;;;;;21.79;51.35;100556.16;4987419;28;20045;-75
2021/07/31 09:21:40;;;;;;;2.63;1.52;;;;;;;21.90;52.16;100554.53;4986926;28;20029;-75
2021/07/31 09:24:23;;;;;;;3.30;1.63;;;;;;;22.31;50.34;100539.41;5001033;28;20037;-74
2021/07/31 09:26:53;;;;;;;6.10;2.13;;;;;;;21.90;51.57;100550.03;4983104;28;20081;-76
2021/07/31 09:29:26;;;;;;;6.03;1.75;;;;;;;21.27;53.31;100556.22;4981940;28;20073;-74
2021/07/31 09:32:02;;;;;;;4.32;1.50;;;;;;;21.23;53.44;100565.59;4989437;28;20125;-74
2021/07/31 09:34:43;;;;;;;3.22;1.40;;;;;;;21.33;54.01;100556.06;5008040;28;20033;-75
2021/07/31 09:37:09;;;;;;;4.80;1.70;;;;;;;21.68;52.35;100557.03;5000046;28;20030;-75
2021/07/31 09:40:04;;;;;;;4.00;1.38;;;;;;;22.23;51.12;100553.78;4998070;28;20290;-75
2021/07/31 09:42:38;;;;;;;4.63;1.60;;;;;;;22.23;49.91;100551.13;5004457;28;20021;-76
2021/07/31 09:45:15;;;;;;;3.88;1.60;;;;;;;22.17;49.50;100558.19;5002952;28;20523;-75
2021/07/31 09:47:59;;;;;;;3.83;1.30;;;;;;;22.52;49.07;100549.22;5004709;28;20049;-75
2021/07/31 09:50:51;;;;;;;6.60;1.52;;;;;;;22.58;49.82;100550.09;4982304;28;20159;-75
2021/07/31 09:53:21;;;;;;;4.38;1.55;;;;;;;22.04;50.32;100562.94;4980285;28;20045;-77
2021/07/31 09:55:52;;;;;;;4.25;1.70;;;;;;;21.49;51.70;100565.13;5004700;28;20044;-76
2021/07/31 09:58:19;;;;;;;4.88;1.50;;;;;;;21.33;52.57;100565.81;5010499;28;20045;-76
2021/07/31 10:00:46;;;;;;;2.95;1.48;;;;;;;21.07;54.21;100575.81;4992533;28;20547;-74
2021/07/31 10:03:13;;;;;;;2.65;1.10;;;;;;;21.04;52.33;100573.69;5008846;28;20573;-75
2021/07/31 10:05:40;;;;;;;2.65;1.63;;;;;;;21.76;51.26;100572.50;4985072;28;20168;-75
2021/07/31 10:08:07;;;;;;;2.90;1.23;;;;;;;22.05;51.82;100569.84;4989000;28;20041;-74
2021/07/31 10:10:33;;;;;;;4.30;1.38;;;;;;;21.84;50.13;100579.22;4998684;28;20041;-77
2021/07/31 10:12:59;;;;;;;6.28;1.77;;;;;;;21.42;51.36;100580.25;4990743;28;20041;-74
2021/07/31 10:15:25;;;;;;;4.50;1.65;;;;;;;20.96;52.91;100579.28;5005481;28;20381;-75
2021/07/31 10:17:51;;;;;;;3.30;1.48;;;;;;;20.87;53.03;100586.75;4993581;28;20037;-75
2021/07/31 10:20:26;;;;;;;3.85;1.90;;;;;;;21.03;53.28;100579.16;4995055;28;20037;-74
2021/07/31 10:22:52;;;;;;;4.45;1.40;;;;;;;21.62;51.38;100587.00;5006741;28;20140;-77
2021/07/31 10:25:20;;;;;;;4.40;1.40;;;;;;;21.97;50.76;100566.53;4989489;28;20148;-77
2021/07/31 10:27:46;;;;;;;3.53;1.35;;;;;;;22.27;49.25;100568.13;4985593;28;20038;-74
2021/07/31 10:30:38;;;;;;;3.15;1.20;;;;;;;22.45;49.51;100571.56;5010030;28;20033;-76
2021/07/31 10:33:04;;;;;;;3.83;1.10;;;;;;;22.72;47.44;100564.59;5012418;28;20120;-76
2021/07/31 10:35:36;;;;;;;5.70;1.65;;;;;;;22.69;48.66;100582.78;5001811;28;20081;-75
2021/07/31 10:38:11;;;;;;;8.07;2.20;;;;;;;22.92;49.25;100579.13;5004740;28;20038;-75
2021/07/31 10:40:38;;;;;;;3.92;1.20;;;;;;;22.97;49.51;100584.50;5006389;28;20044;-79
2021/07/31 10:43:06;;;;;;;3.53;1.27;;;;;;;22.72;46.97;100574.38;4986377;28;20336;-76
2021/07/31 10:45:32;;;;;;;3.90;1.20;;;;;;;22.64;46.51;100570.28;5000128;28;20033;-76
2021/07/31 10:48:03;;;;;;;3.42;1.40;;;;;;;22.48;47.66;100579.81;4987059;28;20393;-75
2021/07/31 10:50:29;;;;;;;3.10;1.05;;;;;;;22.67;47.68;100572.44;4993438;28;20053;-74
2021/07/31 10:53:12;;;;;;;2.17;1.00;;;;;;;22.93;47.20;100580.75;4998387;28;20126;-75
2021/07/31 10:55:38;;;;;;;4.22;1.27;;;;;;;22.81;48.23;100572.09;5002104;28;20034;-74
2021/07/31 10:58:08;;;;;;;1.90;1.10;;;;;;;22.84;47.29;100579.56;5005771;28;20120;-75
2021/07/31 11:00:52;;;;;;;3.25;1.17;;;;;;;22.69;46.92;100569.56;4986622;28;20030;-76
2021/07/31 11:03:20;;;;;;;3.85;1.02;;;;;;;22.84;46.64;100583.00;5008724;28;20037;-79
2021/07/31 11:05:51;;;;;;;3.17;1.23;;;;;;;22.83;46.85;100577.94;5000852;28;20068;-75
2021/07/31 11:08:21;;;;;;;2.78;1.30;;;;;;;23.07;47.16;100568.00;4989754;28;20720;-78
2021/07/31 11:10:49;;;;;;;2.58;1.30;;;;;;;23.42;48.22;100580.88;5002115;28;20038;-73
2021/07/31 11:13:17;;;;;;;3.70;1.40;;;;;;;23.41;47.14;100576.59;4996322;28;20037;-76
2021/07/31 11:16:01;;;;;;;5.45;1.80;;;;;;;23.17;47.47;100581.38;5009097;28;20049;-74
2021/07/31 11:18:43;;;;;;;4.28;1.88;;;;;;;23.26;47.13;100573.78;4990294;28;20041;-75
2021/07/31 11:21:21;;;;;;;2.58;1.23;;;;;;;23.76;47.45;100575.41;4993159;28;20037;-77
2021/07/31 11:23:55;;;;;;;1.58;1.00;;;;;;;23.78;45.17;100575.97;5005959;28;20495;-77
2021/07/31 11:26:42;;;;;;;3.35;1.27;;;;;;;23.70;45.97;100579.84;4998330;28;20029;-78
2021/07/31 11:29:18;;;;;;;3.97;1.27;;;;;;;23.49;46.63;100584.13;5003430;28;20040;-76